Latest Coastal Weather Observations for Cape Byron

IDN60701

Issued at 11:35 am EDT Wednesday 26 November 2014 (issued every 10 minutes, with the page automatically refreshed every 10 minutes)

About coastal observations | Map of coastal stations | Coastal observations for NSW | Marine services | Other Formats
Station Details ID: 058216 Name: CAPE BYRON AWS Lat: -28.64 Lon: 153.64 Height: 95.0 m
Data from the previous 72 hours. | See also: Recent months at Cape Byron
Date/Time
EDT
Temp

°C
Wind Pressure Rain
since 9am
mm
Weather Cloud Vis
km
Sea
Height
m
Swell
Dir
 
Speed
knots
Gust
knots
hPa Trend Height
m
Period
s
Dir
26/11:30am 24.9 SSE 5 8 1017.4 - 0.0 - - - - - - -
26/11:00am 25.3 S 7 8 1017.5 - 0.0 - - - - - - -
26/10:30am 23.4 S 9 11 1017.6 - 0.0 - - - - - - -
26/10:00am 23.9 SSW 6 8 1017.7 - 0.0 - - - - - - -
26/09:30am 23.5 SW 8 11 1017.7 - 0.0 - - - - - - -
26/09:00am 23.2 SW 7 11 1017.7 - 0.0 - - - - - - -
26/08:30am 22.1 SW 11 15 1017.6 - 0.0 - - - - - - -
26/08:00am 21.7 SW 9 13 1017.5 - 0.0 - - - - - - -
26/07:30am 21.3 WSW 9 12 1017.4 - 0.0 - - - - - - -
26/07:00am 20.9 WSW 9 12 1017.1 - 0.0 - - - - - - -
26/06:30am 20.8 SW 10 15 1016.8 - 0.0 - - - - - - -
26/06:00am 20.7 SW 11 14 1016.6 - 0.0 - - - - - - -
26/05:30am 20.8 SW 11 14 1016.4 - 0.0 - - - - - - -
26/05:00am 20.8 SW 12 15 1016.0 - 0.0 - - - - - - -
26/04:30am 21.0 SW 13 18 1015.8 - 0.0 - - - - - - -
26/04:00am 20.8 SW 14 17 1015.6 - 0.0 - - - - - - -
26/03:30am 20.9 SW 13 17 1015.9 - 0.0 - - - - - - -
26/03:00am 21.1 SW 12 16 1016.1 - 0.0 - - - - - - -
26/02:30am 21.1 SW 11 16 1016.3 - 0.0 - - - - - - -
26/02:00am 20.7 SW 11 14 1016.5 - 0.0 - - - - - - -
26/01:30am 20.9 SW 9 11 1017.1 - 0.0 - - - - - - -
26/01:00am 21.2 SW 8 10 1017.3 - 0.0 - - - - - - -
26/12:30am 21.4 WSW 9 11 1017.9 - 0.0 - - - - - - -
26/12:00am 21.5 WSW 9 11 1017.9 - 0.0 - - - - - - -
 
Date/Time
EDT
Temp

°C
Wind Pressure Rain
since 9am
mm
Weather Cloud Vis
km
Sea
Height
m
Swell
Dir
 
Speed
knots
Gust
knots
hPa Trend Height
m
Period
s
Dir
25/11:30pm 21.7 SW 9 11 1017.7 - 0.0 - - - - - - -
25/11:00pm 21.8 SW 9 12 1017.9 - 0.0 - - - - - - -
25/10:30pm 22.0 SW 9 11 1017.9 - 0.0 - - - - - - -
25/10:00pm 22.2 SW 10 14 1018.0 - 0.0 - - - - - - -
25/09:30pm 22.3 WSW 6 8 1017.8 - 0.0 - - - - - - -
25/09:00pm 22.1 SW 7 8 1017.4 - 0.0 - - - - - - -
25/08:30pm 21.8 SSW 9 12 1017.2 - 0.0 - - - - - - -
25/08:00pm 23.0 S 4 7 1016.6 - 0.0 - - - - - - -
25/07:30pm 22.0 SSW 8 11 1016.3 - 0.0 - - - - - - -
25/07:00pm 22.7 S 5 9 1015.7 - 0.0 - - - - - - -
25/06:30pm 22.7 W 4 6 1015.4 - 0.0 - - - - - - -
25/06:27pm 23.5 - 3 - 1015.2 - 0.0 - - - - - - -
25/06:00pm 23.3 NNE 13 19 1013.1 - 0.0 - - - - - - -
25/05:30pm 23.0 NNE 15 20 1012.5 - 0.0 - - - - - - -
25/05:00pm 23.8 N 14 20 1012.1 - 0.0 - - - - - - -
25/04:30pm 24.0 NNE 17 24 1011.6 - 0.0 - - - - - - -
25/04:00pm 23.9 N 15 22 1011.6 - 0.0 - - - - - - -
25/03:30pm 23.9 NNE 18 26 1011.6 - 0.0 - - - - - - -
25/03:00pm 24.0 NNE 18 29 1011.7 - 0.0 - - - - - - -
25/02:30pm 24.2 NNE 15 21 1012.2 - 0.0 - - - - - - -
25/02:07pm 24.1 NNE 17 27 1012.0 - 0.0 - - - - - - -
25/02:00pm 24.0 NNE 18 27 1012.1 - 0.0 - - - - - - -
25/01:38pm 24.0 NNE 20 30 1012.1 - 0.0 - - - - - - -
25/01:30pm 24.0 NNE 21 29 1012.2 - 0.0 - - - - - - -
25/01:05pm 24.1 NNE 20 30 1012.5 - 0.0 - - - - - - -
25/01:00pm 24.2 NNE 20 29 1012.6 - 0.0 - - - - - - -
25/12:30pm 24.4 NNE 19 29 1012.8 - 0.0 - - - - - - -
25/12:09pm 24.3 NNE 18 28 1013.2 - 0.0 - - - - - - -
25/12:00pm 24.1 NNE 19 28 1013.1 - 0.0 - - - - - - -
25/11:30am 23.5 NNE 18 28 1013.4 - 0.0 - - - - - - -
25/11:04am 23.5 NNE 15 25 1013.7 - 0.0 - - - - - - -
25/11:00am 23.7 NNE 15 22 1013.7 - 0.0 - - - - - - -
25/10:30am 23.0 N 17 23 1014.1 - 0.0 - - - - - - -
25/10:00am 22.3 N 18 27 1014.0 - 0.0 - - - - - - -
25/09:30am 21.8 N 18 25 1013.9 - 0.0 - - - - - - -
25/09:00am 21.7 N 19 25 1014.0 - 0.0 - - - - - - -
25/08:43am 21.3 N 16 26 1014.1 - 0.0 - - - - - - -
25/08:30am 21.2 N 15 19 1014.3 - 0.0 - - - - - - -
25/08:00am 20.8 N 16 22 1014.0 - 0.0 - - - - - - -
25/07:30am 20.4 N 17 23 1013.8 - 0.0 - - - - - - -
25/07:00am 20.1 N 17 23 1013.4 - 0.0 - - - - - - -
25/06:30am 20.0 N 18 25 1013.2 - 0.0 - - - - - - -
25/06:00am 20.0 N 17 25 1013.1 - 0.0 - - - - - - -
25/05:30am 20.0 N 15 21 1012.9 - 0.0 - - - - - - -
25/05:00am 20.2 N 19 25 1012.1 - 0.0 - - - - - - -
25/04:54am 20.3 N 19 29 1012.0 - 0.0 - - - - - - -
25/04:30am 20.4 N 20 27 1011.9 - 0.0 - - - - - - -
25/04:00am 20.5 N 20 30 1011.7 - 0.0 - - - - - - -
25/03:58am 20.4 N 20 30 1011.8 - 0.0 - - - - - - -
25/03:30am 20.5 N 21 30 1011.5 - 0.0 - - - - - - -
25/03:10am 20.5 N 22 32 1011.4 - 0.0 - - - - - - -
25/03:00am 20.5 N 23 30 1011.4 - 0.0 - - - - - - -
25/02:30am 20.6 N 21 29 1012.1 - 0.0 - - - - - - -
25/02:00am 20.6 N 20 29 1012.4 - 0.0 - - - - - - -
25/01:34am 20.8 N 21 31 1012.3 - 0.0 - - - - - - -
25/01:30am 20.8 N 22 30 1012.5 - 0.0 - - - - - - -
25/01:00am 21.0 N 21 30 1012.7 - 0.0 - - - - - - -
25/12:30am 21.1 N 24 32 1012.7 - 0.0 - - - - - - -
25/12:06am 21.1 N 19 30 1013.3 - 0.0 - - - - - - -
25/12:00am 21.2 N 19 27 1013.5 - 0.0 - - - - - - -
 
Date/Time
EDT
Temp

°C
Wind Pressure Rain
since 9am
mm
Weather Cloud Vis
km
Sea
Height
m
Swell
Dir
 
Speed
knots
Gust
knots
hPa Trend Height
m
Period
s
Dir
24/11:50pm 21.2 N 21 31 1013.5 - 0.0 - - - - - - -
24/11:30pm 20.8 N 19 25 1013.7 - 0.0 - - - - - - -
24/11:00pm 20.7 N 21 29 1013.6 - 0.0 - - - - - - -
24/10:30pm 20.6 N 22 29 1013.5 - 0.0 - - - - - - -
24/10:00pm 20.5 N 20 27 1013.5 - 0.0 - - - - - - -
24/09:30pm 20.8 N 22 29 1013.1 - 0.0 - - - - - - -
24/09:00pm 20.9 N 20 27 1012.8 - 0.0 - - - - - - -
24/08:30pm 21.2 N 23 29 1012.4 - 0.0 - - - - - - -
24/08:00pm 21.5 N 22 30 1012.1 - 0.0 - - - - - - -
24/07:30pm 21.1 N 19 26 1012.0 - 0.0 - - - - - - -
24/07:00pm 21.4 N 17 24 1012.0 - 0.0 - - - - - - -
24/06:30pm 21.9 N 14 21 1011.8 - 0.0 - - - - - - -
24/06:00pm 22.2 N 17 22 1011.5 - 0.0 - - - - - - -
24/05:30pm 22.2 N 11 17 1011.7 - 0.0 - - - - - - -
24/05:00pm 22.4 N 16 25 1011.6 - 0.0 - - - - - - -
24/04:30pm 23.6 N 15 19 1012.1 - 0.0 - - - - - - -
24/04:00pm 23.8 N 17 23 1012.4 - 0.0 - - - - - - -
24/03:30pm 23.9 N 17 25 1012.6 - 0.0 - - - - - - -
24/03:00pm 24.1 NNE 18 25 1013.0 - 0.0 - - - - - - -
24/02:30pm 24.0 NNE 19 28 1013.3 - 0.0 - - - - - - -
24/02:00pm 24.1 NNE 20 31 1013.6 - 0.0 - - - - - - -
24/01:30pm 24.0 NNE 21 32 1013.8 - 0.0 - - - - - - -
24/01:06pm 24.0 NNE 21 31 1014.1 - 0.0 - - - - - - -
24/01:00pm 24.0 NNE 21 29 1014.2 - 0.0 - - - - - - -
24/12:30pm 24.0 NNE 21 31 1014.6 - 0.0 - - - - - - -
24/12:03pm 24.0 NNE 22 33 1014.9 - 0.0 - - - - - - -
24/12:00pm 24.0 NNE 22 30 1015.0 - 0.0 - - - - - - -
24/11:30am 24.0 NNE 21 30 1015.3 - 0.0 - - - - - - -
24/11:00am 23.9 NNE 20 31 1015.6 - 0.0 - - - - - - -
24/10:42am 23.8 NNE 19 29 1015.8 - 0.0 - - - - - - -
24/10:30am 23.6 NNE 19 26 1015.9 - 0.0 - - - - - - -
24/10:00am 23.4 NNE 19 30 1016.2 - 0.0 - - - - - - -
24/09:56am 23.3 NNE 19 30 1016.3 - 0.0 - - - - - - -
24/09:30am 23.1 N 19 28 1016.5 - 0.0 - - - - - - -
24/09:00am 22.7 N 21 27 1016.7 - 0.0 - - - - - - -
24/08:30am 22.1 N 20 28 1016.7 - 0.0 - - - - - - -
24/08:00am 21.6 N 20 26 1016.5 - 0.0 - - - - - - -
24/07:30am 21.1 N 19 28 1016.3 - 0.0 - - - - - - -
24/07:00am 20.9 N 18 26 1016.2 - 0.0 - - - - - - -
24/06:30am 20.9 N 20 27 1016.1 - 0.0 - - - - - - -
24/06:00am 20.4 N 19 24 1015.7 - 0.0 - - - - - - -
24/05:30am 20.4 N 19 24 1015.4 - 0.0 - - - - - - -
24/05:00am 20.4 N 19 27 1015.2 - 0.0 - - - - - - -
24/04:30am 20.5 N 20 27 1015.0 - 0.0 - - - - - - -
24/04:00am 20.4 N 18 25 1015.0 - 0.0 - - - - - - -
24/03:30am 20.2 N 18 24 1015.1 - 0.0 - - - - - - -
24/03:00am 20.4 N 18 25 1015.0 - 0.0 - - - - - - -
24/02:30am 20.5 N 20 26 1015.1 - 0.0 - - - - - - -
24/02:00am 20.6 N 20 27 1015.5 - 0.0 - - - - - - -
24/01:30am 20.6 N 19 25 1015.9 - 0.0 - - - - - - -
24/01:00am 20.5 N 19 25 1016.0 - 0.0 - - - - - - -
24/12:30am 20.7 N 18 24 1016.3 - 0.0 - - - - - - -
24/12:00am 20.8 N 18 24 1016.2 - 0.0 - - - - - - -
 
Date/Time
EDT
Temp

°C
Wind Pressure Rain
since 9am
mm
Weather Cloud Vis
km
Sea
Height
m
Swell
Dir
 
Speed
knots
Gust
knots
hPa Trend Height
m
Period
s
Dir
23/11:30pm 20.6 N 17 23 1016.2 - 0.0 - - - - - - -
23/11:00pm 20.8 N 18 24 1015.9 - 0.0 - - - - - - -
23/10:30pm 20.8 N 17 23 1015.7 - 0.0 - - - - - - -
23/10:00pm 20.9 N 18 23 1015.6 - 0.0 - - - - - - -
23/09:30pm 21.0 N 17 22 1015.7 - 0.0 - - - - - - -
23/09:00pm 21.0 N 16 23 1015.6 - 0.0 - - - - - - -
23/08:30pm 21.0 N 16 23 1015.2 - 0.0 - - - - - - -
23/08:00pm 21.0 N 16 23 1014.8 - 0.0 - - - - - - -
23/07:30pm 20.8 N 15 20 1014.4 - 0.0 - - - - - - -
23/07:00pm 20.9 N 15 21 1013.7 - 0.0 - - - - - - -
23/06:30pm 21.0 N 15 22 1013.1 - 0.0 - - - - - - -
23/06:00pm 21.3 N 15 21 1013.0 - 0.0 - - - - - - -
23/05:30pm 21.6 N 17 25 1012.8 - 0.0 - - - - - - -
23/05:00pm 21.8 N 16 23 1013.5 - 0.0 - - - - - - -
23/04:30pm 21.9 N 16 22 1013.3 - 0.0 - - - - - - -
23/04:00pm 22.4 N 15 23 1013.4 - 0.0 - - - - - - -
23/03:30pm 22.8 N 17 25 1013.7 - 0.0 - - - - - - -
23/03:22pm 23.0 N 19 29 1013.8 - 0.0 - - - - - - -
23/03:00pm 23.2 N 21 30 1013.5 - 0.0 - - - - - - -
23/02:30pm 23.6 NNE 19 28 1014.0 - 0.0 - - - - - - -
23/02:19pm 24.0 N 19 29 1014.2 - 0.0 - - - - - - -
23/02:00pm 24.0 NNE 19 26 1014.3 - 0.0 - - - - - - -
23/01:50pm 24.2 N 19 29 1014.7 - 0.0 - - - - - - -
23/01:30pm 24.3 N 20 28 1014.8 - 0.0 - - - - - - -
23/01:00pm 24.1 N 20 28 1015.1 - 0.0 - - - - - - -
23/12:30pm 24.2 NNE 21 33 1015.5 - 0.0 - - - - - - -
23/12:00pm 24.1 NNE 21 31 1015.6 - 0.0 - - - - - - -

Other Formats:

Comma delimited format used in spreadsheet applications
http://www.bom.gov.au/fwo/IDN60701/IDN60701.94599.axf

JavaScript Object Notation format (JSON) in row-major order
http://www.bom.gov.au/fwo/IDN60701/IDN60701.94599.json